sensor_id;sensor_type;location;lat;lon;timestamp;pressure;altitude;pressure_sealevel;temperature;humidity
55070;BME280;40967;52.070;8.596;2023-05-07T00:01:34;100638.66;;;14.63;81.82
55070;BME280;40967;52.070;8.596;2023-05-07T00:04:00;100638.81;;;14.53;81.97
55070;BME280;40967;52.070;8.596;2023-05-07T00:06:25;100654.28;;;14.58;82.41
55070;BME280;40967;52.070;8.596;2023-05-07T00:08:51;100642.66;;;14.52;82.50
55070;BME280;40967;52.070;8.596;2023-05-07T00:11:17;100652.75;;;14.52;82.67
55070;BME280;40967;52.070;8.596;2023-05-07T00:13:42;100650.59;;;14.49;82.58
55070;BME280;40967;52.070;8.596;2023-05-07T00:16:08;100645.41;;;14.47;82.68
55070;BME280;40967;52.070;8.596;2023-05-07T00:18:33;100651.16;;;14.46;82.40
55070;BME280;40967;52.070;8.596;2023-05-07T00:20:58;100650.38;;;14.45;82.10
55070;BME280;40967;52.070;8.596;2023-05-07T00:23:24;100655.03;;;14.45;82.05
55070;BME280;40967;52.070;8.596;2023-05-07T00:25:49;100656.69;;;14.41;82.08
55070;BME280;40967;52.070;8.596;2023-05-07T00:28:15;100657.81;;;14.40;81.97
55070;BME280;40967;52.070;8.596;2023-05-07T00:30:40;100658.66;;;14.35;81.83
55070;BME280;40967;52.070;8.596;2023-05-07T00:33:06;100655.94;;;14.35;82.08
55070;BME280;40967;52.070;8.596;2023-05-07T00:35:31;100664.41;;;14.34;81.91
55070;BME280;40967;52.070;8.596;2023-05-07T00:37:57;100657.41;;;14.28;81.97
55070;BME280;40967;52.070;8.596;2023-05-07T00:40:22;100651.13;;;14.27;82.27
55070;BME280;40967;52.070;8.596;2023-05-07T00:42:48;100662.59;;;14.24;82.13
55070;BME280;40967;52.070;8.596;2023-05-07T00:45:15;100656.38;;;14.19;82.10
55070;BME280;40967;52.070;8.596;2023-05-07T00:47:40;100660.72;;;14.20;82.19
55070;BME280;40967;52.070;8.596;2023-05-07T00:50:06;100656.97;;;14.16;82.45
55070;BME280;40967;52.070;8.596;2023-05-07T00:52:33;100659.16;;;14.14;82.70
55070;BME280;40967;52.070;8.596;2023-05-07T00:55:04;100651.28;;;14.12;83.08
55070;BME280;40967;52.070;8.596;2023-05-07T00:57:33;100655.38;;;14.10;82.99
55070;BME280;40967;52.070;8.596;2023-05-07T01:00:01;100652.13;;;14.08;83.44
55070;BME280;40967;52.070;8.596;2023-05-07T01:02:27;100657.63;;;14.03;83.67
55070;BME280;40967;52.070;8.596;2023-05-07T01:04:52;100653.00;;;14.03;83.41
55070;BME280;40967;52.070;8.596;2023-05-07T01:07:18;100645.13;;;14.02;83.29
55070;BME280;40967;52.070;8.596;2023-05-07T01:09:43;100651.66;;;14.01;83.56
55070;BME280;40967;52.070;8.596;2023-05-07T01:12:10;100664.75;;;13.99;83.77
55070;BME280;40967;52.070;8.596;2023-05-07T01:14:36;100659.38;;;13.94;83.75
55070;BME280;40967;52.070;8.596;2023-05-07T01:17:01;100669.78;;;13.92;84.12
55070;BME280;40967;52.070;8.596;2023-05-07T01:19:28;100664.88;;;13.89;84.32
55070;BME280;40967;52.070;8.596;2023-05-07T01:22:02;100670.84;;;13.91;84.28
55070;BME280;40967;52.070;8.596;2023-05-07T01:24:29;100664.88;;;13.89;84.48
55070;BME280;40967;52.070;8.596;2023-05-07T01:26:55;100669.00;;;13.86;84.35
55070;BME280;40967;52.070;8.596;2023-05-07T01:29:20;100669.78;;;13.87;84.46
55070;BME280;40967;52.070;8.596;2023-05-07T01:31:46;100670.66;;;13.82;84.27
55070;BME280;40967;52.070;8.596;2023-05-07T01:34:13;100670.97;;;13.81;84.44
55070;BME280;40967;52.070;8.596;2023-05-07T01:36:42;100669.59;;;13.78;84.05
55070;BME280;40967;52.070;8.596;2023-05-07T01:39:09;100670.19;;;13.75;84.25
55070;BME280;40967;52.070;8.596;2023-05-07T01:41:35;100671.56;;;13.73;84.53
55070;BME280;40967;52.070;8.596;2023-05-07T01:44:01;100667.56;;;13.65;84.71
55070;BME280;40967;52.070;8.596;2023-05-07T01:46:28;100656.13;;;13.63;84.83
55070;BME280;40967;52.070;8.596;2023-05-07T01:48:55;100661.88;;;13.61;85.05
55070;BME280;40967;52.070;8.596;2023-05-07T01:51:21;100658.91;;;13.58;85.01
55070;BME280;40967;52.070;8.596;2023-05-07T01:53:47;100661.91;;;13.56;85.15
55070;BME280;40967;52.070;8.596;2023-05-07T01:56:18;100665.72;;;13.55;85.21
55070;BME280;40967;52.070;8.596;2023-05-07T01:58:45;100661.91;;;13.56;85.39
55070;BME280;40967;52.070;8.596;2023-05-07T02:01:14;100666.53;;;13.56;85.57
55070;BME280;40967;52.070;8.596;2023-05-07T02:03:39;100664.09;;;13.54;85.94
55070;BME280;40967;52.070;8.596;2023-05-07T02:06:05;100666.81;;;13.54;85.54
55070;BME280;40967;52.070;8.596;2023-05-07T02:08:30;100660.84;;;13.52;86.19
55070;BME280;40967;52.070;8.596;2023-05-07T02:10:56;100664.09;;;13.54;86.29
55070;BME280;40967;52.070;8.596;2023-05-07T02:13:21;100667.41;;;13.51;86.25
55070;BME280;40967;52.070;8.596;2023-05-07T02:15:47;100662.78;;;13.47;86.41
55070;BME280;40967;52.070;8.596;2023-05-07T02:18:16;100674.22;;;13.49;86.00
55070;BME280;40967;52.070;8.596;2023-05-07T02:20:41;100670.97;;;13.47;86.17
55070;BME280;40967;52.070;8.596;2023-05-07T02:23:07;100672.38;;;13.44;86.44
55070;BME280;40967;52.070;8.596;2023-05-07T02:25:32;100673.19;;;13.40;86.43
55070;BME280;40967;52.070;8.596;2023-05-07T02:27:58;100676.25;;;13.33;86.82
55070;BME280;40967;52.070;8.596;2023-05-07T02:30:24;100680.09;;;13.32;86.86
55070;BME280;40967;52.070;8.596;2023-05-07T02:32:50;100679.28;;;13.32;87.25
55070;BME280;40967;52.070;8.596;2023-05-07T02:35:15;100683.38;;;13.29;87.25
55070;BME280;40967;52.070;8.596;2023-05-07T02:37:41;100675.22;;;13.24;87.31
55070;BME280;40967;52.070;8.596;2023-05-07T02:40:07;100683.13;;;13.26;87.41
55070;BME280;40967;52.070;8.596;2023-05-07T02:42:32;100683.13;;;13.26;87.36
55070;BME280;40967;52.070;8.596;2023-05-07T02:44:58;100681.22;;;13.26;87.37
55070;BME280;40967;52.070;8.596;2023-05-07T02:47:24;100682.03;;;13.27;87.13
55070;BME280;40967;52.070;8.596;2023-05-07T02:49:52;100676.03;;;13.25;86.95
55070;BME280;40967;52.070;8.596;2023-05-07T02:52:18;100668.72;;;13.20;87.22
55070;BME280;40967;52.070;8.596;2023-05-07T02:54:43;100664.41;;;13.14;87.00
55070;BME280;40967;52.070;8.596;2023-05-07T02:57:08;100664.97;;;13.11;87.01
55070;BME280;40967;52.070;8.596;2023-05-07T02:59:34;100678.56;;;13.16;86.97
55070;BME280;40967;52.070;8.596;2023-05-07T03:01:59;100669.59;;;13.11;87.82
55070;BME280;40967;52.070;8.596;2023-05-07T03:04:25;100687.84;;;13.10;87.73
55070;BME280;40967;52.070;8.596;2023-05-07T03:06:50;100675.91;;;13.06;87.94
55070;BME280;40967;52.070;8.596;2023-05-07T03:09:16;100681.06;;;13.08;87.71
55070;BME280;40967;52.070;8.596;2023-05-07T03:11:44;100674.25;;;13.05;88.16
55070;BME280;40967;52.070;8.596;2023-05-07T03:14:10;100678.88;;;13.00;88.17
55070;BME280;40967;52.070;8.596;2023-05-07T03:16:35;100676.44;;;12.98;87.87
55070;BME280;40967;52.070;8.596;2023-05-07T03:19:01;100681.66;;;12.95;88.30
55070;BME280;40967;52.070;8.596;2023-05-07T03:21:26;100674.88;;;12.92;88.03
55070;BME280;40967;52.070;8.596;2023-05-07T03:23:52;100672.97;;;12.88;88.85
55070;BME280;40967;52.070;8.596;2023-05-07T03:26:18;100673.25;;;12.86;88.46
55070;BME280;40967;52.070;8.596;2023-05-07T03:28:43;100662.38;;;12.81;88.80
55070;BME280;40967;52.070;8.596;2023-05-07T03:31:09;100672.22;;;12.77;89.25
55070;BME280;40967;52.070;8.596;2023-05-07T03:33:34;100665.16;;;12.76;89.12
55070;BME280;40967;52.070;8.596;2023-05-07T03:36:00;100664.03;;;12.77;89.20
55070;BME280;40967;52.070;8.596;2023-05-07T03:38:26;100665.69;;;12.78;89.32
55070;BME280;40967;52.070;8.596;2023-05-07T03:40:52;100666.25;;;12.75;89.12
55070;BME280;40967;52.070;8.596;2023-05-07T03:43:17;100657.84;;;12.72;89.78
55070;BME280;40967;52.070;8.596;2023-05-07T03:45:42;100666.25;;;12.75;89.54
55070;BME280;40967;52.070;8.596;2023-05-07T03:48:08;100676.84;;;12.77;89.85
55070;BME280;40967;52.070;8.596;2023-05-07T03:50:33;100669.78;;;12.76;89.68
55070;BME280;40967;52.070;8.596;2023-05-07T03:52:59;100676.59;;;12.73;89.64
55070;BME280;40967;52.070;8.596;2023-05-07T03:55:24;100680.69;;;12.71;89.77
55070;BME280;40967;52.070;8.596;2023-05-07T03:57:50;100685.31;;;12.70;89.44
55070;BME280;40967;52.070;8.596;2023-05-07T04:00:16;100688.59;;;12.67;89.78
55070;BME280;40967;52.070;8.596;2023-05-07T04:02:41;100693.00;;;12.63;89.89
55070;BME280;40967;52.070;8.596;2023-05-07T04:05:07;100687.53;;;12.58;90.10
55070;BME280;40967;52.070;8.596;2023-05-07T04:07:33;100692.97;;;12.58;90.02
55070;BME280;40967;52.070;8.596;2023-05-07T04:09:58;100687.81;;;12.56;90.11
55070;BME280;40967;52.070;8.596;2023-05-07T04:12:23;100694.38;;;12.55;89.93
55070;BME280;40967;52.070;8.596;2023-05-07T04:14:49;100694.94;;;12.52;90.23
55070;BME280;40967;52.070;8.596;2023-05-07T04:17:17;100691.94;;;12.54;90.38
55070;BME280;40967;52.070;8.596;2023-05-07T04:19:43;100697.66;;;12.52;90.38
55070;BME280;40967;52.070;8.596;2023-05-07T04:22:11;100690.31;;;12.48;90.23
55070;BME280;40967;52.070;8.596;2023-05-07T04:24:36;100696.84;;;12.47;90.38
55070;BME280;40967;52.070;8.596;2023-05-07T04:27:02;100705.03;;;12.47;90.39
55070;BME280;40967;52.070;8.596;2023-05-07T04:29:27;100709.38;;;12.43;90.35
55070;BME280;40967;52.070;8.596;2023-05-07T04:31:53;100714.00;;;12.42;90.40
55070;BME280;40967;52.070;8.596;2023-05-07T04:34:20;100701.78;;;12.40;90.91
55070;BME280;40967;52.070;8.596;2023-05-07T04:36:46;100715.13;;;12.36;90.89
55070;BME280;40967;52.070;8.596;2023-05-07T04:39:11;100716.44;;;12.39;90.87
55070;BME280;40967;52.070;8.596;2023-05-07T04:41:37;100715.66;;;12.38;90.90
55070;BME280;40967;52.070;8.596;2023-05-07T04:44:02;100718.38;;;12.38;91.10
55070;BME280;40967;52.070;8.596;2023-05-07T04:46:29;100718.91;;;12.35;91.11
55070;BME280;40967;52.070;8.596;2023-05-07T04:48:54;100716.47;;;12.34;90.95
55070;BME280;40967;52.070;8.596;2023-05-07T04:51:20;100727.34;;;12.34;91.45
55070;BME280;40967;52.070;8.596;2023-05-07T04:53:45;100723.28;;;12.36;91.21
55070;BME280;40967;52.070;8.596;2023-05-07T04:56:11;100723.56;;;12.35;90.95
55070;BME280;40967;52.070;8.596;2023-05-07T04:58:36;100729.53;;;12.37;91.29
55070;BME280;40967;52.070;8.596;2023-05-07T05:01:02;100727.06;;;12.35;91.46
55070;BME280;40967;52.070;8.596;2023-05-07T05:03:27;100733.91;;;12.33;91.61
55070;BME280;40967;52.070;8.596;2023-05-07T05:05:53;100731.47;;;12.31;91.57
55070;BME280;40967;52.070;8.596;2023-05-07T05:08:18;100733.91;;;12.33;91.80
55070;BME280;40967;52.070;8.596;2023-05-07T05:10:44;100723.84;;;12.33;91.98
55070;BME280;40967;52.070;8.596;2023-05-07T05:13:09;100722.47;;;12.36;91.68
55070;BME280;40967;52.070;8.596;2023-05-07T05:15:38;100731.16;;;12.38;91.98
55070;BME280;40967;52.070;8.596;2023-05-07T05:18:03;100726.28;;;12.35;91.72
55070;BME280;40967;52.070;8.596;2023-05-07T05:20:29;100732.53;;;12.40;91.85
55070;BME280;40967;52.070;8.596;2023-05-07T05:22:55;100736.59;;;12.43;91.81
55070;BME280;40967;52.070;8.596;2023-05-07T05:25:20;100731.69;;;12.45;91.53
55070;BME280;40967;52.070;8.596;2023-05-07T05:27:45;100737.69;;;12.47;91.38
55070;BME280;40967;52.070;8.596;2023-05-07T05:30:11;100734.94;;;12.47;91.60
55070;BME280;40967;52.070;8.596;2023-05-07T05:32:37;100737.41;;;12.48;91.17
55070;BME280;40967;52.070;8.596;2023-05-07T05:35:02;100734.09;;;12.51;91.33
55070;BME280;40967;52.070;8.596;2023-05-07T05:37:28;100730.56;;;12.51;91.34
55070;BME280;40967;52.070;8.596;2023-05-07T05:39:55;100739.53;;;12.56;91.29
55070;BME280;40967;52.070;8.596;2023-05-07T05:42:21;100743.63;;;12.59;91.14
55070;BME280;40967;52.070;8.596;2023-05-07T05:44:46;100738.47;;;12.57;90.93
55070;BME280;40967;52.070;8.596;2023-05-07T05:47:11;100744.44;;;12.65;90.44
55070;BME280;40967;52.070;8.596;2023-05-07T05:49:37;100738.16;;;12.64;90.83
55070;BME280;40967;52.070;8.596;2023-05-07T05:52:03;100745.78;;;12.62;90.76
55070;BME280;40967;52.070;8.596;2023-05-07T05:54:28;100742.50;;;12.65;90.69
55070;BME280;40967;52.070;8.596;2023-05-07T05:56:54;100739.78;;;12.65;90.62
55070;BME280;40967;52.070;8.596;2023-05-07T05:59:19;100748.75;;;12.71;90.42
55070;BME280;40967;52.070;8.596;2023-05-07T06:01:45;100748.47;;;12.72;90.61
55070;BME280;40967;52.070;8.596;2023-05-07T06:04:13;100743.81;;;12.78;90.40
55070;BME280;40967;52.070;8.596;2023-05-07T06:06:38;100750.34;;;12.82;90.36
55070;BME280;40967;52.070;8.596;2023-05-07T06:09:04;100740.28;;;12.82;90.08
55070;BME280;40967;52.070;8.596;2023-05-07T06:11:29;100744.59;;;12.88;89.56
55070;BME280;40967;52.070;8.596;2023-05-07T06:13:56;100755.44;;;12.98;89.42
55070;BME280;40967;52.070;8.596;2023-05-07T06:16:21;100758.72;;;13.05;89.35
55070;BME280;40967;52.070;8.596;2023-05-07T06:18:47;100767.94;;;13.14;89.04
55070;BME280;40967;52.070;8.596;2023-05-07T06:21:13;100752.38;;;13.20;88.58
55070;BME280;40967;52.070;8.596;2023-05-07T06:23:39;100757.78;;;13.25;87.98
55070;BME280;40967;52.070;8.596;2023-05-07T06:26:06;100760.19;;;13.31;87.69
55070;BME280;40967;52.070;8.596;2023-05-07T06:28:31;100757.97;;;13.38;87.31
55070;BME280;40967;52.070;8.596;2023-05-07T06:31:17;100763.41;;;13.43;87.26
55070;BME280;40967;52.070;8.596;2023-05-07T06:33:44;100765.84;;;13.50;86.66
55070;BME280;40967;52.070;8.596;2023-05-07T06:36:10;100768.78;;;13.53;86.13
55070;BME280;40967;52.070;8.596;2023-05-07T06:38:35;100768.53;;;13.55;85.55
55070;BME280;40967;52.070;8.596;2023-05-07T06:41:01;100776.38;;;13.61;85.17
55070;BME280;40967;52.070;8.596;2023-05-07T06:43:26;100776.91;;;13.63;85.01
55070;BME280;40967;52.070;8.596;2023-05-07T06:45:51;100782.31;;;13.68;84.71
55070;BME280;40967;52.070;8.596;2023-05-07T06:48:17;100785.84;;;13.74;84.58
55070;BME280;40967;52.070;8.596;2023-05-07T06:50:42;100781.72;;;13.77;83.87
55070;BME280;40967;52.070;8.596;2023-05-07T06:53:08;100783.59;;;13.81;83.87
55070;BME280;40967;52.070;8.596;2023-05-07T06:55:33;100786.28;;;13.86;83.42
55070;BME280;40967;52.070;8.596;2023-05-07T06:57:58;100792.53;;;13.87;83.28
55070;BME280;40967;52.070;8.596;2023-05-07T07:00:26;100794.97;;;13.93;83.08
55070;BME280;40967;52.070;8.596;2023-05-07T07:02:53;100791.09;;;13.99;82.67
55070;BME280;40967;52.070;8.596;2023-05-07T07:05:18;100795.16;;;14.02;82.31
55070;BME280;40967;52.070;8.596;2023-05-07T07:07:44;100791.31;;;14.03;82.23
55070;BME280;40967;52.070;8.596;2023-05-07T07:10:10;100788.00;;;14.06;82.06
55070;BME280;40967;52.070;8.596;2023-05-07T07:12:35;100791.22;;;14.13;81.64
55070;BME280;40967;52.070;8.596;2023-05-07T07:15:00;100783.00;;;14.18;81.55
55070;BME280;40967;52.070;8.596;2023-05-07T07:17:26;100781.63;;;14.20;81.40
55070;BME280;40967;52.070;8.596;2023-05-07T07:19:51;100786.47;;;14.33;80.92
55070;BME280;40967;52.070;8.596;2023-05-07T07:22:17;100780.59;;;14.45;80.79
55070;BME280;40967;52.070;8.596;2023-05-07T07:24:42;100783.75;;;14.57;80.41
55070;BME280;40967;52.070;8.596;2023-05-07T07:27:07;100787.41;;;14.71;79.99
55070;BME280;40967;52.070;8.596;2023-05-07T07:29:33;100795.50;;;14.81;79.30
55070;BME280;40967;52.070;8.596;2023-05-07T07:31:58;100790.44;;;14.93;78.50
55070;BME280;40967;52.070;8.596;2023-05-07T07:34:24;100794.44;;;15.01;78.18
55070;BME280;40967;52.070;8.596;2023-05-07T07:36:49;100783.09;;;15.12;77.71
55070;BME280;40967;52.070;8.596;2023-05-07T07:39:14;100792.50;;;15.25;76.66
55070;BME280;40967;52.070;8.596;2023-05-07T07:41:40;100795.22;;;15.25;76.55
55070;BME280;40967;52.070;8.596;2023-05-07T07:44:06;100810.63;;;15.39;75.87
55070;BME280;40967;52.070;8.596;2023-05-07T07:46:32;100802.88;;;15.46;75.28
55070;BME280;40967;52.070;8.596;2023-05-07T07:48:58;100809.03;;;15.57;74.75
55070;BME280;40967;52.070;8.596;2023-05-07T07:51:25;100802.16;;;15.59;74.41
55070;BME280;40967;52.070;8.596;2023-05-07T07:53:50;100802.91;;;15.65;73.80
55070;BME280;40967;52.070;8.596;2023-05-07T07:56:15;100798.75;;;15.67;73.37
55070;BME280;40967;52.070;8.596;2023-05-07T07:58:41;100808.59;;;15.68;73.10
55070;BME280;40967;52.070;8.596;2023-05-07T08:01:07;100803.91;;;15.69;73.03
55070;BME280;40967;52.070;8.596;2023-05-07T08:03:32;100798.63;;;15.77;72.48
55070;BME280;40967;52.070;8.596;2023-05-07T08:05:58;100796.09;;;15.81;72.29
55070;BME280;40967;52.070;8.596;2023-05-07T08:08:23;100807.31;;;15.79;72.38
55070;BME280;40967;52.070;8.596;2023-05-07T08:10:49;100799.09;;;15.79;72.27
55070;BME280;40967;52.070;8.596;2023-05-07T08:13:17;100808.34;;;15.83;72.29
55070;BME280;40967;52.070;8.596;2023-05-07T08:15:43;100804.22;;;15.86;72.10
55070;BME280;40967;52.070;8.596;2023-05-07T08:18:08;100796.81;;;15.86;71.85
55070;BME280;40967;52.070;8.596;2023-05-07T08:20:34;100798.25;;;15.84;71.66
55070;BME280;40967;52.070;8.596;2023-05-07T08:23:04;100802.06;;;15.83;71.62
55070;BME280;40967;52.070;8.596;2023-05-07T08:25:33;100809.69;;;15.86;71.58
55070;BME280;40967;52.070;8.596;2023-05-07T08:27:58;100804.28;;;16.00;71.33
55070;BME280;40967;52.070;8.596;2023-05-07T08:30:23;100800.56;;;16.09;71.33
55070;BME280;40967;52.070;8.596;2023-05-07T08:32:49;100810.44;;;16.24;70.85
55070;BME280;40967;52.070;8.596;2023-05-07T08:35:14;100815.75;;;16.34;70.42
55070;BME280;40967;52.070;8.596;2023-05-07T08:37:40;100815.28;;;16.45;70.06
55070;BME280;40967;52.070;8.596;2023-05-07T08:40:05;100806.28;;;16.58;69.37
55070;BME280;40967;52.070;8.596;2023-05-07T08:42:35;100810.78;;;16.68;69.04
55070;BME280;40967;52.070;8.596;2023-05-07T08:45:02;100804.28;;;16.77;68.45
55070;BME280;40967;52.070;8.596;2023-05-07T08:47:43;100806.34;;;16.99;67.88
55070;BME280;40967;52.070;8.596;2023-05-07T08:50:10;100813.22;;;17.10;67.23
55070;BME280;40967;52.070;8.596;2023-05-07T08:52:36;100810.88;;;17.17;66.66
55070;BME280;40967;52.070;8.596;2023-05-07T08:55:03;100812.41;;;17.23;66.13
55070;BME280;40967;52.070;8.596;2023-05-07T08:57:28;100805.38;;;17.31;65.62
55070;BME280;40967;52.070;8.596;2023-05-07T08:59:54;100799.59;;;17.32;65.35
55070;BME280;40967;52.070;8.596;2023-05-07T09:02:20;100807.72;;;17.37;65.24
55070;BME280;40967;52.070;8.596;2023-05-07T09:04:46;100809.84;;;17.40;65.05
55070;BME280;40967;52.070;8.596;2023-05-07T09:07:11;100815.03;;;17.42;64.76
55070;BME280;40967;52.070;8.596;2023-05-07T09:09:37;100811.97;;;17.43;64.87
55070;BME280;40967;52.070;8.596;2023-05-07T09:12:02;100807.09;;;17.40;64.72
55070;BME280;40967;52.070;8.596;2023-05-07T09:14:29;100811.38;;;17.46;64.77
55070;BME280;40967;52.070;8.596;2023-05-07T09:16:56;100812.59;;;17.54;64.56
55070;BME280;40967;52.070;8.596;2023-05-07T09:19:26;100811.84;;;17.62;64.21
55070;BME280;40967;52.070;8.596;2023-05-07T09:22:05;100810.13;;;17.66;63.81
55070;BME280;40967;52.070;8.596;2023-05-07T09:24:32;100816.44;;;17.66;63.77
55070;BME280;40967;52.070;8.596;2023-05-07T09:27:05;100815.03;;;17.55;64.08
55070;BME280;40967;52.070;8.596;2023-05-07T09:29:31;100821.09;;;17.66;63.80
55070;BME280;40967;52.070;8.596;2023-05-07T09:32:05;100826.16;;;17.72;63.89
55070;BME280;40967;52.070;8.596;2023-05-07T09:34:31;100825.94;;;17.82;63.61
55070;BME280;40967;52.070;8.596;2023-05-07T09:37:00;100819.75;;;17.99;63.47
55070;BME280;40967;52.070;8.596;2023-05-07T09:39:25;100820.72;;;18.17;63.06
55070;BME280;40967;52.070;8.596;2023-05-07T09:41:51;100813.94;;;18.23;62.58
55070;BME280;40967;52.070;8.596;2023-05-07T09:44:20;100817.25;;;18.33;62.22
55070;BME280;40967;52.070;8.596;2023-05-07T09:46:47;100817.53;;;18.45;61.87
55070;BME280;40967;52.070;8.596;2023-05-07T09:49:24;100809.28;;;18.45;61.33
55070;BME280;40967;52.070;8.596;2023-05-07T09:51:55;100816.91;;;18.48;61.16
55070;BME280;40967;52.070;8.596;2023-05-07T09:54:21;100812.47;;;18.61;61.14
55070;BME280;40967;52.070;8.596;2023-05-07T09:56:51;100805.81;;;18.62;60.95
55070;BME280;40967;52.070;8.596;2023-05-07T09:59:17;100814.94;;;18.71;60.80
55070;BME280;40967;52.070;8.596;2023-05-07T10:01:44;100806.72;;;18.79;60.63
55070;BME280;40967;52.070;8.596;2023-05-07T10:04:10;100808.88;;;18.91;60.23
55070;BME280;40967;52.070;8.596;2023-05-07T10:06:37;100810.03;;;18.98;59.82
55070;BME280;40967;52.070;8.596;2023-05-07T10:09:04;100811.66;;;19.08;59.73
55070;BME280;40967;52.070;8.596;2023-05-07T10:11:36;100810.25;;;19.19;59.18
55070;BME280;40967;52.070;8.596;2023-05-07T10:14:02;100815.34;;;19.34;59.27
55070;BME280;40967;52.070;8.596;2023-05-07T10:16:33;100814.06;;;19.40;58.80
55070;BME280;40967;52.070;8.596;2023-05-07T10:19:06;100817.63;;;19.41;58.67
55070;BME280;40967;52.070;8.596;2023-05-07T10:21:36;100808.25;;;19.42;58.44
55070;BME280;40967;52.070;8.596;2023-05-07T10:24:08;100805.81;;;19.40;58.32
55070;BME280;40967;52.070;8.596;2023-05-07T10:26:45;100812.47;;;19.48;58.53
55070;BME280;40967;52.070;8.596;2023-05-07T10:34:50;100805.53;;;20.01;57.75
55070;BME280;40967;52.070;8.596;2023-05-07T10:37:18;100825.16;;;20.17;56.97
55070;BME280;40967;52.070;8.596;2023-05-07T10:39:44;100818.81;;;20.25;56.59
55070;BME280;40967;52.070;8.596;2023-05-07T10:42:11;100833.56;;;20.38;56.05
55070;BME280;40967;52.070;8.596;2023-05-07T10:44:37;100832.88;;;20.49;55.82
55070;BME280;40967;52.070;8.596;2023-05-07T10:49:29;100831.00;;;20.79;55.19
55070;BME280;40967;52.070;8.596;2023-05-07T10:52:11;100831.16;;;20.82;54.74
55070;BME280;40967;52.070;8.596;2023-05-07T10:54:38;100826.09;;;20.93;54.37
55070;BME280;40967;52.070;8.596;2023-05-07T10:57:34;100815.53;;;21.03;54.20
55070;BME280;40967;52.070;8.596;2023-05-07T11:05:25;100829.56;;;21.48;53.02
55070;BME280;40967;52.070;8.596;2023-05-07T11:07:57;100830.66;;;21.56;53.18
55070;BME280;40967;52.070;8.596;2023-05-07T11:10:22;100827.63;;;21.69;52.76
55070;BME280;40967;52.070;8.596;2023-05-07T11:12:48;100833.13;;;21.78;52.45
55070;BME280;40967;52.070;8.596;2023-05-07T11:15:15;100818.47;;;21.77;52.20
55070;BME280;40967;52.070;8.596;2023-05-07T11:17:59;100813.72;;;21.86;52.21
55070;BME280;40967;52.070;8.596;2023-05-07T11:20:50;100820.44;;;21.97;52.03
55070;BME280;40967;52.070;8.596;2023-05-07T11:26:07;100825.91;;;22.06;51.29
55070;BME280;40967;52.070;8.596;2023-05-07T11:28:37;100816.13;;;22.08;51.42
55070;BME280;40967;52.070;8.596;2023-05-07T11:31:03;100821.47;;;22.13;50.91
55070;BME280;40967;52.070;8.596;2023-05-07T11:33:29;100814.72;;;22.02;50.79
55070;BME280;40967;52.070;8.596;2023-05-07T11:35:56;100817.69;;;21.97;50.96
55070;BME280;40967;52.070;8.596;2023-05-07T11:38:22;100823.22;;;21.97;51.07
55070;BME280;40967;52.070;8.596;2023-05-07T11:40:50;100819.56;;;22.05;51.06
55070;BME280;40967;52.070;8.596;2023-05-07T11:43:16;100825.09;;;22.05;50.93
55070;BME280;40967;52.070;8.596;2023-05-07T11:45:42;100812.50;;;21.96;50.91
55070;BME280;40967;52.070;8.596;2023-05-07T11:48:07;100820.13;;;21.99;50.64
55070;BME280;40967;52.070;8.596;2023-05-07T11:50:33;100813.38;;;21.88;51.24
55070;BME280;40967;52.070;8.596;2023-05-07T11:52:58;100815.63;;;21.94;51.42
55070;BME280;40967;52.070;8.596;2023-05-07T11:55:24;100813.63;;;21.95;51.31
55070;BME280;40967;52.070;8.596;2023-05-07T11:57:51;100817.47;;;22.02;50.60
55070;BME280;40967;52.070;8.596;2023-05-07T12:00:17;100818.66;;;22.01;50.58
55070;BME280;40967;52.070;8.596;2023-05-07T12:02:43;100811.00;;;21.98;50.59
55070;BME280;40967;52.070;8.596;2023-05-07T12:05:10;100810.88;;;21.95;50.37
55070;BME280;40967;52.070;8.596;2023-05-07T12:07:35;100810.47;;;22.05;50.43
55070;BME280;40967;52.070;8.596;2023-05-07T12:10:07;100816.31;;;22.03;50.43
55070;BME280;40967;52.070;8.596;2023-05-07T12:12:45;100808.16;;;22.07;50.81
55070;BME280;40967;52.070;8.596;2023-05-07T12:15:10;100809.88;;;21.99;50.16
55070;BME280;40967;52.070;8.596;2023-05-07T12:17:36;100808.31;;;21.90;50.13
55070;BME280;40967;52.070;8.596;2023-05-07T12:20:02;100820.94;;;21.79;50.63
55070;BME280;40967;52.070;8.596;2023-05-07T12:22:28;100819.44;;;21.81;50.45
55070;BME280;40967;52.070;8.596;2023-05-07T12:24:57;100816.56;;;21.69;50.82
55070;BME280;40967;52.070;8.596;2023-05-07T12:27:23;100811.06;;;21.69;50.98
55070;BME280;40967;52.070;8.596;2023-05-07T12:29:49;100812.50;;;21.75;50.95
55070;BME280;40967;52.070;8.596;2023-05-07T12:32:19;100819.25;;;21.86;50.94
55070;BME280;40967;52.070;8.596;2023-05-07T12:34:46;100814.53;;;21.87;50.83
55070;BME280;40967;52.070;8.596;2023-05-07T12:37:12;100818.19;;;21.79;50.55
55070;BME280;40967;52.070;8.596;2023-05-07T12:39:47;100820.44;;;21.77;50.60
55070;BME280;40967;52.070;8.596;2023-05-07T12:42:19;100811.06;;;21.69;50.71
55070;BME280;40967;52.070;8.596;2023-05-07T12:44:49;100818.03;;;21.67;50.70
55070;BME280;40967;52.070;8.596;2023-05-07T12:47:15;100831.41;;;21.65;51.00
55070;BME280;40967;52.070;8.596;2023-05-07T12:49:41;100828.31;;;21.66;50.77
55070;BME280;40967;52.070;8.596;2023-05-07T12:52:06;100819.34;;;21.69;51.02
55070;BME280;40967;52.070;8.596;2023-05-07T12:54:34;100831.47;;;21.77;51.18
55070;BME280;40967;52.070;8.596;2023-05-07T12:57:04;100829.38;;;21.82;50.86
55070;BME280;40967;52.070;8.596;2023-05-07T12:59:32;100834.34;;;21.89;50.40
55070;BME280;40967;52.070;8.596;2023-05-07T13:01:58;100829.59;;;21.89;50.45
55070;BME280;40967;52.070;8.596;2023-05-07T13:04:26;100829.88;;;21.96;50.68